Flight Track Log - Related Links

Times and Time Zones

All times are in EDT time to prevent confusion due to time zone crossing. See the SKW6492 flight status page for this flight to view local times or setup timezone preferences in your user account.

Time Position Orientation Groundspeed Altitude Reporting Facility
EDT Latitude Longitude Course Direction KTS MPH feet Rate Location/Type
Fri 09:54:26 PM 39.8500 -104.7500 13° North 170 196 6,200  Level Denver TRACON
Fri 09:55:26 PM 39.8667 -104.8167 288° West 201 231 7,900 1,901 Climbing Denver TRACON
Fri 09:56:07 PM 39.8889 -104.8578 305° West 224 258 9,400 2,621 Climbing Denver Center
Fri 09:57:00 PM 40.1888 -104.9541 346° North  Level Estimated
Fri 09:57:09 PM 39.9386 -104.9206 316° Northwest 258 297 12,400  Level Denver Center
Fri 09:58:00 PM 40.2705 -105.0248 348° North  Level Estimated
Fri 09:58:11 PM 40.0131 -104.8803 23° Northeast 297 342 14,700  Level Denver Center
Fri 09:59:00 PM 40.3660 -104.9964 13° North  Level FlightAware Approximate
Fri 09:59:13 PM 40.0925 -104.8131 33° Northeast 313 360 16,900  Level Denver Center
Fri 10:00:15 PM 40.1781 -104.8000 North 322 371 17,900 1,161 Climbing Denver Center
Fri 10:01:17 PM 40.2747 -104.8078 356° North 346 398 19,300 1,790 Climbing Denver Center
Fri 10:02:19 PM 40.3761 -104.8172 356° North 339 390 21,600 1,935 Climbing Denver Center
Fri 10:03:21 PM 40.4683 -104.8239 357° North 333 383 23,300 1,161 Climbing Denver Center
Fri 10:04:23 PM 40.5706 -104.8350 355° North 345 397 24,000 537 Climbing Denver Center
Fri 10:05:24 PM 40.6578 -104.8417 357° North 359 413 24,400 634 Climbing Denver Center
Fri 10:06:26 PM 40.7822 -104.8508 357° North 368 423 25,300 871 Climbing Denver Center
Fri 10:07:28 PM 40.8811 -104.8961 341° North 373 429 26,200 774 Climbing Denver Center
Fri 10:08:30 PM 40.9789 -104.9450 339° North 376 433 26,900 774 Climbing Denver Center
Fri 10:09:32 PM 41.0858 -104.9978 340° North 376 433 27,800 677 Climbing Denver Center
Fri 10:10:34 PM 41.1803 -105.0431 340° North 375 432 28,300 484 Climbing Denver Center
Fri 10:11:36 PM 41.2758 -105.0903 340° North 382 440 28,800 537 Climbing Denver Center
Fri 10:12:37 PM 41.3883 -105.1492 339° North 387 445 29,400 488 Climbing Denver Center
Fri 10:13:39 PM 41.4861 -105.1956 340° North 388 447 29,800 484 Climbing Denver Center
Fri 10:14:41 PM 41.5944 -105.2697 333° Northwest 399 459 30,400 532 Climbing Denver Center
Fri 10:15:43 PM 41.6767 -105.3586 321° Northwest 397 457 30,900 488 Climbing Denver Center
Fri 10:16:44 PM 41.7708 -105.4617 321° Northwest 393 452 31,400 488 Climbing Denver Center
Fri 10:17:46 PM 41.8525 -105.5472 322° Northwest 390 449 31,900 290 Climbing Denver Center
Fri 10:18:48 PM 41.9328 -105.6347 321° Northwest 389 448 32,000 48 Climbing Denver Center
Fri 10:19:50 PM 42.0283 -105.7400 321° Northwest 394 453 32,000  Level Denver Center
Fri 10:20:52 PM 42.1086 -105.8289 321° Northwest 391 450 32,000  Level Denver Center
Fri 10:21:53 PM 42.2025 -105.9328 321° Northwest 391 450 32,000  Level Denver Center
Fri 10:22:55 PM 42.2842 -106.0225 321° Northwest 393 452 32,000  Level Denver Center
Fri 10:23:57 PM 42.3781 -106.1283 320° Northwest 393 452 32,000  Level Denver Center
Fri 10:24:58 PM 42.4592 -106.2197 320° Northwest 394 453 32,000  Level Denver Center
Fri 10:26:00 PM 42.5403 -106.3089 321° Northwest 393 452 32,000  Level Denver Center
Fri 10:27:02 PM 42.6353 -106.4161 320° Northwest 396 456 32,000  Level Denver Center
Fri 10:28:03 PM 42.7167 -106.5061 321° Northwest 396 456 32,000  Level Denver Center
Fri 10:29:05 PM 42.8128 -106.6139 321° Northwest 399 459 32,000  Level Denver Center
Fri 10:30:07 PM 42.8956 -106.7064 321° Northwest 401 461 32,000  Level Denver Center
Fri 10:31:08 PM 42.9917 -106.8156 320° Northwest 402 463 32,000  Level Denver Center
Fri 10:31:52 PM 43.0469 -106.8797 320° Northwest 405 466 32,000  Level Salt Lake Center
Fri 10:32:54 PM 43.1281 -106.9717 320° Northwest 405 466 32,000  Level Salt Lake Center
Fri 10:33:55 PM 43.2314 -107.0925 320° Northwest 408 470 32,000  Level Salt Lake Center
Fri 10:34:57 PM 43.3194 -107.1897 321° Northwest 407 468 32,000  Level Salt Lake Center
Fri 10:35:59 PM 43.4069 -107.2889 321° Northwest 407 468 32,000  Level Salt Lake Center
Fri 10:37:00 PM 43.4936 -107.3906 320° Northwest 410 472 32,000 -146 Level Salt Lake Center
Fri 10:38:02 PM 43.5819 -107.4914 320° Northwest 412 474 31,700 -1,268 Descending Salt Lake Center
Fri 10:39:03 PM 43.6672 -107.5922 319° Northwest 406 467 29,400 -2,146 Descending Salt Lake Center
Fri 10:40:05 PM 43.7522 -107.6900 320° Northwest 398 458 27,300 -2,032 Descending Salt Lake Center
Fri 10:41:07 PM 43.8358 -107.7883 320° Northwest 395 455 25,200 -2,195 Descending Salt Lake Center
Fri 10:42:08 PM 43.9342 -107.9036 320° Northwest 387 445 22,800 -2,146 Descending Salt Lake Center
Fri 10:43:10 PM 44.0139 -107.9981 320° Northwest 379 436 20,800 -1,951 Descending Salt Lake Center
Fri 10:44:11 PM 44.0917 -108.0906 320° Northwest 372 428 18,800 -1,902 Descending Salt Lake Center
Fri 10:45:13 PM 44.1669 -108.1828 319° Northwest 367 422 16,900 -1,839 Descending Salt Lake Center
Fri 10:46:15 PM 44.2392 -108.2689 320° Northwest 357 411 15,000 -1,805 Descending Salt Lake Center
Fri 10:47:16 PM 44.3075 -108.3492 320° Northwest 342 394 13,200 -1,659 Descending Salt Lake Center
Fri 10:48:18 PM 44.3742 -108.4289 319° Northwest 328 377 11,600 -1,415 Descending Salt Lake Center
Fri 10:49:19 PM 44.4342 -108.4997 320° Northwest 309 356 10,300 -1,268 Descending Salt Lake Center
Fri 10:50:21 PM 44.4875 -108.5636 319° Northwest 279 321 9,000 -629 Descending Salt Lake Center
Fri 10:51:23 PM 44.5522 -108.6417 319° Northwest 263 303 9,000 -146 Level Salt Lake Center
Fri 10:52:24 PM 44.5981 -108.6956 320° Northwest 243 280 8,700 -488 Descending Salt Lake Center
Fri 10:53:26 PM 44.6414 -108.7403 324° Northwest 218 251 8,000 -537 Descending Salt Lake Center
Fri 10:54:27 PM 44.6456 -108.8000 276° West 190 219 7,600 -244 Descending Salt Lake Center
Fri 10:55:29 PM 44.6200 -108.8503 234° Southwest 171 197 7,500 -244 Descending Salt Lake Center
Fri 10:56:30 PM 44.5961 -108.8917 231° Southwest 153 176 7,100 -590 Descending Salt Lake Center
Fri 10:57:31 PM 44.5717 -108.9372 233° Southwest 147 169 6,300 -439 Descending Salt Lake Center
Fri 10:58:33 PM 44.5475 -108.9800 232° Southwest 146 168 6,200 -97 Descending Salt Lake Center

Login

Don't have an account? Register now (free) for customized features, flight alerts, and more!